TAF Text Data
IDs:
Format:
Raw Decoded Include METAR

Data at: 1521 UTC 27 Nov 2021

KBTV 271123Z 2712/2812 31015G26KT P6SM OVC025
  FM271500 30012G21KT P6SM BKN035
  FM272200 30009KT P6SM SCT035
  FM280400 VRB04KT P6SM SCT040
  FM280800 15003KT P6SM FEW200